Time;durP1;ratioP1;P1;durP2;ratioP2;P2;SDS_P1;SDS_P2;PMS_P1;PMS_P2;Temp;Humidity;BMP_temperature;BMP_pressure;BME280_temperature;BME280_humidity;BME280_pressure;Samples;Min_cycle;Max_cycle;Signal;HPM_P1;HPM_P2
2021/11/03 00:01:56;;;;;;;2.40;1.35;;;5.20;99.90;;;;;;5102201;28;20047;-65
2021/11/03 00:04:22;;;;;;;1.35;1.08;;;5.10;99.90;;;;;;5103345;28;20036;-65
2021/11/03 00:06:48;;;;;;;1.70;1.05;;;5.20;99.90;;;;;;5102530;28;20098;-66
2021/11/03 00:09:13;;;;;;;1.70;1.20;;;5.20;99.90;;;;;;5099161;28;20399;-65
2021/11/03 00:11:39;;;;;;;;;;;5.20;99.90;;;;;;5103091;28;20035;-65
2021/11/03 00:14:05;;;;;;;1.90;1.30;;;5.10;99.90;;;;;;5103121;28;19947;-66
2021/11/03 00:16:31;;;;;;;1.60;1.30;;;5.10;99.90;;;;;;5102475;28;20040;-66
2021/11/03 00:18:56;;;;;;;1.52;1.20;;;5.10;99.90;;;;;;5090095;28;20036;-66
2021/11/03 00:21:22;;;;;;;3.60;1.73;;;5.00;99.90;;;;;;5091070;28;20496;-65
2021/11/03 00:23:48;;;;;;;2.97;1.67;;;5.00;99.90;;;;;;5088829;28;20404;-68
2021/11/03 00:26:13;;;;;;;;;;;5.00;99.90;;;;;;5088888;28;20036;-67
2021/11/03 00:28:39;;;;;;;3.38;2.45;;;4.90;99.90;;;;;;5088756;28;19920;-65
2021/11/03 00:31:05;;;;;;;;;;;4.90;99.90;;;;;;5072425;28;20040;-66
2021/11/03 00:33:32;;;;;;;2.80;1.98;;;4.80;99.90;;;;;;5089906;28;19916;-66
2021/11/03 00:36:01;;;;;;;4.10;2.75;;;4.80;99.90;;;;;;5087708;28;20043;-66
2021/11/03 00:38:27;;;;;;;5.70;2.97;;;4.70;99.90;;;;;;5087281;28;20064;-66
2021/11/03 00:40:53;;;;;;;4.82;3.10;;;4.70;99.90;;;;;;5086259;28;20040;-65
2021/11/03 00:43:20;;;;;;;7.90;5.25;;;4.80;99.90;;;;;;5087304;28;20105;-65
2021/11/03 00:45:46;;;;;;;11.10;4.85;;;4.80;99.90;;;;;;5088323;28;20044;-65
2021/11/03 00:48:13;;;;;;;5.22;3.25;;;4.70;99.90;;;;;;5088641;28;20039;-66
2021/11/03 00:50:39;;;;;;;3.38;2.78;;;4.60;99.90;;;;;;5088825;28;20036;-66
2021/11/03 00:53:07;;;;;;;4.07;2.90;;;4.60;99.90;;;;;;5088617;28;20123;-65
2021/11/03 00:55:34;;;;;;;4.72;3.40;;;4.50;99.90;;;;;;5088708;28;20047;-65
2021/11/03 00:57:59;;;;;;;8.27;3.10;;;4.50;99.90;;;;;;5087275;28;20036;-65
2021/11/03 01:00:25;;;;;;;7.53;3.45;;;4.40;99.90;;;;;;5088272;28;20036;-65
2021/11/03 01:02:51;;;;;;;9.73;4.72;;;4.40;99.90;;;;;;5084551;28;20028;-65
2021/11/03 01:05:21;;;;;;;6.05;3.33;;;4.40;99.90;;;;;;5088429;28;20062;-66
2021/11/03 01:07:47;;;;;;;5.07;3.40;;;4.30;99.90;;;;;;5088649;28;20530;-66
2021/11/03 01:10:13;;;;;;;7.15;3.08;;;4.20;99.90;;;;;;5083092;28;20047;-66
2021/11/03 01:12:39;;;;;;;8.07;3.50;;;4.10;99.90;;;;;;5087610;28;20050;-66
2021/11/03 01:15:09;;;;;;;5.97;3.30;;;4.10;99.90;;;;;;5082863;28;20032;-65
2021/11/03 01:17:34;;;;;;;5.00;3.30;;;4.20;99.90;;;;;;5087032;28;20040;-66
2021/11/03 01:20:00;;;;;;;6.13;4.05;;;4.20;99.90;;;;;;5088371;28;20058;-65
2021/11/03 01:22:25;;;;;;;4.68;3.40;;;4.20;99.90;;;;;;5087699;28;20036;-65
2021/11/03 01:24:51;;;;;;;5.90;3.55;;;4.10;99.90;;;;;;5087824;28;20052;-65
2021/11/03 01:27:16;;;;;;;4.88;3.42;;;4.10;99.90;;;;;;5086944;28;20040;-65
2021/11/03 01:29:42;;;;;;;4.55;2.92;;;4.10;99.90;;;;;;5086977;28;20040;-66
2021/11/03 01:32:08;;;;;;;9.82;3.17;;;4.10;99.90;;;;;;5087195;28;20122;-66
2021/11/03 01:34:33;;;;;;;4.78;2.20;;;4.00;99.90;;;;;;5087696;28;20048;-65
2021/11/03 01:36:59;;;;;;;6.13;3.40;;;3.90;99.90;;;;;;5087508;28;20131;-65
2021/11/03 01:39:24;;;;;;;5.22;2.95;;;3.90;99.90;;;;;;5083572;28;20042;-66
2021/11/03 01:41:50;;;;;;;5.50;3.28;;;3.90;99.90;;;;;;5086840;28;20051;-65
2021/11/03 01:44:17;;;;;;;4.60;2.63;;;3.90;99.90;;;;;;5087863;28;20154;-66
2021/11/03 01:46:57;;;;;;;3.88;2.75;;;3.90;99.90;;;;;;5087313;28;20044;-65
2021/11/03 01:49:23;;;;;;;7.38;3.92;;;4.00;99.90;;;;;;5087417;28;20040;-65
2021/11/03 01:52:15;;;;;;;4.78;3.05;;;4.00;99.90;;;;;;5087260;28;20044;-65
2021/11/03 01:54:49;;;;;;;5.35;3.35;;;4.00;99.90;;;;;;5084298;28;20059;-66
2021/11/03 01:57:19;;;;;;;5.25;2.85;;;4.00;99.90;;;;;;5087198;28;20036;-67
2021/11/03 01:59:46;;;;;;;6.30;2.97;;;3.90;99.90;;;;;;5086081;28;20047;-66
2021/11/03 02:02:15;;;;;;;5.88;2.75;;;3.80;99.90;;;;;;5085469;28;20040;-64
2021/11/03 02:04:41;;;;;;;7.70;3.40;;;3.70;99.90;;;;;;5066101;28;20082;-65
2021/11/03 02:07:11;;;;;;;6.13;3.75;;;3.70;99.90;;;;;;5066388;28;20121;-65
2021/11/03 02:09:37;;;;;;;5.20;3.45;;;3.70;99.90;;;;;;5074834;28;20047;-64
2021/11/03 02:12:03;;;;;;;5.40;3.70;;;3.70;99.90;;;;;;5086747;28;20040;-65
2021/11/03 02:14:28;;;;;;;4.22;3.33;;;3.80;99.90;;;;;;5087241;28;20040;-65
2021/11/03 02:16:54;;;;;;;4.03;2.75;;;3.70;99.90;;;;;;5086172;28;20550;-65
2021/11/03 02:19:30;;;;;;;4.03;3.10;;;3.60;99.90;;;;;;5086888;28;20079;-66
2021/11/03 02:21:56;;;;;;;;;;;3.60;99.90;;;;;;5087541;28;20052;-65
2021/11/03 02:24:29;;;;;;;3.77;2.70;;;3.60;99.90;;;;;;5085782;28;19998;-65
2021/11/03 02:26:57;;;;;;;4.45;2.88;;;3.60;99.90;;;;;;5086390;28;20163;-66
2021/11/03 02:29:23;;;;;;;5.00;3.00;;;3.50;99.90;;;;;;5087207;28;20044;-66
2021/11/03 02:31:53;;;;;;;5.05;3.10;;;3.50;99.90;;;;;;5086613;28;20043;-66
2021/11/03 02:34:28;;;;;;;8.25;3.50;;;3.50;99.90;;;;;;5087776;28;20063;-66
2021/11/03 02:36:59;;;;;;;4.90;3.10;;;3.50;99.90;;;;;;5087559;28;20089;-66
2021/11/03 02:39:34;;;;;;;5.20;3.38;;;3.40;99.90;;;;;;5082248;28;20051;-66
2021/11/03 02:41:59;;;;;;;4.50;3.17;;;3.30;99.90;;;;;;5086781;28;20050;-65
2021/11/03 02:44:28;;;;;;;5.07;3.42;;;3.30;99.90;;;;;;5086738;28;20118;-63
2021/11/03 02:46:53;;;;;;;7.78;3.42;;;3.30;99.90;;;;;;5085270;28;20048;-62
2021/11/03 02:49:19;;;;;;;3.72;2.75;;;3.30;99.90;;;;;;5085969;28;20466;-64
2021/11/03 02:51:45;;;;;;;5.28;3.25;;;3.30;99.90;;;;;;5086330;28;20586;-62
2021/11/03 02:54:19;;;;;;;4.80;2.58;;;3.10;99.90;;;;;;5086392;28;20046;-63
2021/11/03 02:56:54;;;;;;;3.92;2.95;;;3.10;99.90;;;;;;5086246;28;20098;-63
2021/11/03 02:59:25;;;;;;;4.10;2.60;;;3.10;99.90;;;;;;5085639;28;20126;-63
2021/11/03 03:01:55;;;;;;;3.10;2.40;;;3.10;99.90;;;;;;5086110;28;20047;-62
2021/11/03 03:04:32;;;;;;;5.57;3.28;;;3.20;99.90;;;;;;5082512;28;20111;-62
2021/11/03 03:06:58;;;;;;;6.80;3.20;;;3.20;99.90;;;;;;5085385;28;20127;-61
2021/11/03 03:09:25;;;;;;;6.20;2.88;;;3.20;99.90;;;;;;5082296;28;20403;-62
2021/11/03 03:11:54;;;;;;;6.28;3.03;;;3.10;99.90;;;;;;5086331;28;20094;-62
2021/11/03 03:14:22;;;;;;;9.48;3.42;;;3.00;99.90;;;;;;5085127;28;20040;-62
2021/11/03 03:16:48;;;;;;;4.43;2.75;;;3.00;99.90;;;;;;5084489;28;20047;-61
2021/11/03 03:19:15;;;;;;;4.05;3.00;;;3.00;99.90;;;;;;5085939;28;20040;-63
2021/11/03 03:21:41;;;;;;;7.45;3.17;;;3.00;99.90;;;;;;5085344;28;20046;-62
2021/11/03 03:24:09;;;;;;;19.58;5.53;;;3.00;99.90;;;;;;5081322;28;20116;-62
2021/11/03 03:26:35;;;;;;;4.57;3.30;;;3.00;99.90;;;;;;5085657;28;20037;-69
2021/11/03 03:29:01;;;;;;;4.35;3.00;;;3.10;99.90;;;;;;5085447;28;20052;-62
2021/11/03 03:31:28;;;;;;;2.58;1.75;;;3.20;99.90;;;;;;5086142;28;20818;-62
2021/11/03 03:33:58;;;;;;;3.78;2.05;;;3.20;99.90;;;;;;5086393;28;20050;-62
2021/11/03 03:36:23;;;;;;;4.53;2.50;;;3.40;99.90;;;;;;5086375;28;20063;-62
2021/11/03 03:38:50;;;;;;;7.10;2.67;;;3.40;99.90;;;;;;5081403;28;20485;-61
2021/11/03 03:41:17;;;;;;;3.45;2.60;;;3.40;99.90;;;;;;5085963;28;20114;-63
2021/11/03 03:43:43;;;;;;;3.60;2.75;;;3.40;99.90;;;;;;5086224;28;20088;-62
2021/11/03 03:46:09;;;;;;;4.47;3.25;;;3.50;99.90;;;;;;5084253;28;20075;-62
2021/11/03 03:48:35;;;;;;;4.63;2.97;;;3.50;99.90;;;;;;5086175;28;20058;-62
2021/11/03 03:51:01;;;;;;;5.15;3.15;;;3.60;99.90;;;;;;5086218;28;20563;-62
2021/11/03 03:53:27;;;;;;;4.57;3.40;;;3.60;99.90;;;;;;5088688;28;20122;-62
2021/11/03 03:55:52;;;;;;;7.03;4.22;;;3.60;99.90;;;;;;5089659;28;20071;-63
2021/11/03 03:58:20;;;;;;;8.05;4.47;;;3.70;99.90;;;;;;5090021;28;20044;-62
2021/11/03 04:00:47;;;;;;;4.70;3.38;;;3.70;99.90;;;;;;5089046;28;20062;-62
2021/11/03 04:03:13;;;;;;;5.78;3.85;;;3.60;99.90;;;;;;5089788;28;20036;-64
2021/11/03 04:05:39;;;;;;;6.78;4.40;;;3.60;99.90;;;;;;5089969;28;20043;-63
2021/11/03 04:08:05;;;;;;;9.57;5.65;;;3.60;99.90;;;;;;5088822;28;20040;-63
2021/11/03 04:10:30;;;;;;;4.57;3.30;;;3.60;99.90;;;;;;5085666;28;20391;-63
2021/11/03 04:12:56;;;;;;;6.43;4.15;;;3.60;99.90;;;;;;5090134;28;20102;-63
2021/11/03 04:15:22;;;;;;;6.00;4.30;;;3.60;99.90;;;;;;5087547;28;20075;-64
2021/11/03 04:17:48;;;;;;;8.57;5.15;;;3.60;99.90;;;;;;5088009;28;20036;-64
2021/11/03 04:20:15;;;;;;;10.80;5.93;;;3.70;99.90;;;;;;5090238;28;20656;-63
2021/11/03 04:22:41;;;;;;;9.82;6.18;;;3.80;99.90;;;;;;5089921;28;20047;-63
2021/11/03 04:25:09;;;;;;;19.30;6.95;;;3.90;99.90;;;;;;5090188;28;20055;-63
2021/11/03 04:27:35;;;;;;;6.43;4.85;;;3.90;99.90;;;;;;5089497;28;20523;-63
2021/11/03 04:30:00;;;;;;;8.48;5.70;;;3.80;99.90;;;;;;5090036;28;20080;-63
2021/11/03 04:32:26;;;;;;;8.63;5.60;;;3.80;99.90;;;;;;5089668;28;20046;-64
2021/11/03 04:34:52;;;;;;;9.85;6.03;;;3.80;99.90;;;;;;5089926;28;20105;-62
2021/11/03 04:37:18;;;;;;;9.45;5.70;;;3.80;99.90;;;;;;5089661;28;20052;-63
2021/11/03 04:39:43;;;;;;;11.35;6.50;;;3.70;99.90;;;;;;5085068;28;20036;-64
2021/11/03 04:42:09;;;;;;;12.90;6.80;;;3.70;99.90;;;;;;5089326;28;20043;-63
2021/11/03 04:44:35;;;;;;;9.77;5.97;;;3.80;99.90;;;;;;5088591;28;20036;-63
2021/11/03 04:47:01;;;;;;;12.45;6.93;;;3.70;99.90;;;;;;5088711;28;20121;-63
2021/11/03 04:49:28;;;;;;;9.35;6.55;;;3.70;99.90;;;;;;5089394;28;20067;-63
2021/11/03 04:51:53;;;;;;;12.75;7.80;;;3.80;99.90;;;;;;5089208;28;20140;-64
2021/11/03 04:54:19;;;;;;;11.25;7.50;;;3.80;99.90;;;;;;5089443;28;20523;-64
2021/11/03 04:56:45;;;;;;;11.30;7.30;;;3.80;99.90;;;;;;5088095;28;20700;-63
2021/11/03 04:59:11;;;;;;;9.30;5.72;;;3.90;99.90;;;;;;5089335;28;20048;-62
2021/11/03 05:01:37;;;;;;;9.68;6.93;;;3.90;99.90;;;;;;5088942;28;20128;-64
2021/11/03 05:04:03;;;;;;;10.30;6.35;;;3.80;99.90;;;;;;5073741;28;20835;-63
2021/11/03 05:06:31;;;;;;;9.32;6.18;;;3.80;99.90;;;;;;5068355;28;20040;-63
2021/11/03 05:08:57;;;;;;;10.68;6.68;;;3.90;99.90;;;;;;5071197;28;20131;-63
2021/11/03 05:11:23;;;;;;;11.32;6.57;;;3.90;99.90;;;;;;5086193;28;20185;-63
2021/11/03 05:13:48;;;;;;;9.82;6.20;;;3.90;99.90;;;;;;5086728;28;20566;-63
2021/11/03 05:16:17;;;;;;;10.02;6.68;;;4.00;99.90;;;;;;5087307;28;20111;-63
2021/11/03 05:18:43;;;;;;;9.32;6.32;;;4.00;99.90;;;;;;5088556;28;20688;-64
2021/11/03 05:21:11;;;;;;;12.20;7.30;;;4.10;99.90;;;;;;5088396;28;20123;-64
2021/11/03 05:23:38;;;;;;;9.52;6.45;;;4.00;99.90;;;;;;5087448;28;20043;-64
2021/11/03 05:26:03;;;;;;;11.18;6.40;;;4.10;99.90;;;;;;5087187;28;20545;-63
2021/11/03 05:28:30;;;;;;;9.13;5.53;;;4.10;99.90;;;;;;5087270;28;20055;-63
2021/11/03 05:30:56;;;;;;;7.47;5.25;;;4.30;99.90;;;;;;5084460;28;20051;-64
2021/11/03 05:33:21;;;;;;;9.70;6.88;;;4.40;99.90;;;;;;5086128;28;20036;-63
2021/11/03 05:35:47;;;;;;;12.13;7.53;;;4.40;99.90;;;;;;5088044;28;20126;-62
2021/11/03 05:38:14;;;;;;;11.45;6.15;;;4.40;99.90;;;;;;5086380;28;20119;-62
2021/11/03 05:40:39;;;;;;;10.07;6.32;;;4.50;99.90;;;;;;5083916;28;20044;-62
2021/11/03 05:43:05;;;;;;;9.18;5.75;;;4.50;99.90;;;;;;5080079;28;20175;-62
2021/11/03 05:45:31;;;;;;;9.45;6.15;;;4.50;99.90;;;;;;5080882;28;20040;-62
2021/11/03 05:47:57;;;;;;;6.28;4.75;;;4.60;99.90;;;;;;5086924;28;20056;-64
2021/11/03 05:50:32;;;;;;;17.67;5.65;;;4.60;99.90;;;;;;5077717;28;20042;-63
2021/11/03 05:52:58;;;;;;;6.80;4.68;;;4.70;99.90;;;;;;5087060;28;20039;-63
2021/11/03 05:55:24;;;;;;;7.30;5.00;;;4.70;99.90;;;;;;5079777;28;20047;-63
2021/11/03 05:57:50;;;;;;;8.82;6.07;;;4.80;99.90;;;;;;5086791;28;20034;-64
2021/11/03 06:00:25;;;;;;;8.63;5.68;;;4.80;99.90;;;;;;5087296;28;20044;-64
2021/11/03 06:02:50;;;;;;;9.07;5.55;;;4.80;99.90;;;;;;5084097;28;20028;-64
2021/11/03 06:05:17;;;;;;;7.15;5.15;;;4.90;99.90;;;;;;5087907;28;20078;-63
2021/11/03 06:07:54;;;;;;;7.93;5.00;;;4.90;99.90;;;;;;5086815;28;20066;-64
2021/11/03 06:10:30;;;;;;;6.72;5.05;;;5.00;99.90;;;;;;5079580;28;20127;-64
2021/11/03 06:12:56;;;;;;;10.88;6.38;;;5.00;99.90;;;;;;5087470;28;20142;-65
2021/11/03 06:15:23;;;;;;;10.18;6.63;;;5.00;99.90;;;;;;5086002;28;20139;-64
2021/11/03 06:17:52;;;;;;;12.43;6.85;;;4.90;99.90;;;;;;5087305;28;20406;-65
2021/11/03 06:20:18;;;;;;;8.70;6.28;;;4.90;99.90;;;;;;5086852;28;20036;-63
2021/11/03 06:22:43;;;;;;;9.00;6.40;;;4.90;99.90;;;;;;5087239;28;20043;-64
2021/11/03 06:25:13;;;;;;;9.13;6.15;;;5.00;99.90;;;;;;5087179;28;20044;-59
2021/11/03 06:27:39;;;;;;;8.82;6.10;;;5.00;99.90;;;;;;5086233;28;20047;-64
2021/11/03 06:30:07;;;;;;;10.20;6.43;;;5.00;99.90;;;;;;5083994;28;20046;-64
2021/11/03 06:32:32;;;;;;;10.75;7.15;;;5.10;99.90;;;;;;5075101;28;20072;-66
2021/11/03 06:34:58;;;;;;;11.73;7.20;;;5.00;99.90;;;;;;5076083;28;20496;-66
2021/11/03 06:37:24;;;;;;;10.50;7.10;;;5.00;99.90;;;;;;5074210;28;20496;-64
2021/11/03 06:39:49;;;;;;;10.07;6.60;;;5.00;99.90;;;;;;5074881;28;20039;-65
2021/11/03 06:42:15;;;;;;;9.25;6.30;;;5.00;99.90;;;;;;5071005;28;20046;-64
2021/11/03 06:44:41;;;;;;;9.65;6.40;;;5.00;99.90;;;;;;5076866;28;20036;-63
2021/11/03 06:47:06;;;;;;;9.90;6.47;;;5.00;99.90;;;;;;5068430;28;20621;-66
2021/11/03 06:49:32;;;;;;;10.48;6.45;;;5.00;99.90;;;;;;5085496;28;20514;-66
2021/11/03 06:51:58;;;;;;;10.50;6.82;;;5.00;99.90;;;;;;5085116;28;20047;-65
2021/11/03 06:54:24;;;;;;;9.82;5.82;;;5.10;99.90;;;;;;5086504;28;20063;-66
2021/11/03 06:56:51;;;;;;;9.93;6.22;;;5.10;99.90;;;;;;5078748;28;20430;-65
2021/11/03 06:59:17;;;;;;;9.20;6.38;;;5.20;99.90;;;;;;5084831;28;20081;-64
2021/11/03 07:01:43;;;;;;;10.30;6.57;;;5.20;99.90;;;;;;5081343;28;20035;-65
2021/11/03 07:04:09;;;;;;;9.73;6.53;;;5.20;99.90;;;;;;5074535;28;20032;-65
2021/11/03 07:06:35;;;;;;;10.05;6.53;;;5.20;99.90;;;;;;5081200;28;20052;-64
2021/11/03 07:09:01;;;;;;;8.65;6.10;;;5.30;99.90;;;;;;5082007;28;20553;-69
2021/11/03 07:11:28;;;;;;;9.05;6.15;;;5.30;99.90;;;;;;5086307;28;20105;-63
2021/11/03 07:13:54;;;;;;;10.60;6.70;;;5.40;99.90;;;;;;5082195;28;20063;-64
2021/11/03 07:16:20;;;;;;;10.15;6.45;;;5.40;99.90;;;;;;5085374;28;20036;-61
2021/11/03 07:18:45;;;;;;;11.32;6.57;;;5.40;99.90;;;;;;5086480;28;20044;-62
2021/11/03 07:21:11;;;;;;;9.93;6.47;;;5.40;99.90;;;;;;5085776;28;20052;-62
2021/11/03 07:23:37;;;;;;;12.25;7.50;;;5.40;99.90;;;;;;5086054;28;20036;-63
2021/11/03 07:26:03;;;;;;;;;;;5.40;99.90;;;;;;5086877;28;20087;-64
2021/11/03 07:28:28;;;;;;;16.17;8.90;;;5.50;99.90;;;;;;5089364;28;19927;-64
2021/11/03 07:30:54;;;;;;;;;;;5.50;99.90;;;;;;5090864;28;20063;-64
2021/11/03 07:33:20;;;;;;;14.02;8.05;;;5.60;99.90;;;;;;5083131;28;19973;-65
2021/11/03 07:35:46;;;;;;;16.88;9.15;;;5.50;99.90;;;;;;5090597;28;20043;-64
2021/11/03 07:38:13;;;;;;;12.45;7.35;;;5.50;99.90;;;;;;5089576;28;20089;-64
2021/11/03 07:40:46;;;;;;;13.80;7.70;;;5.60;99.90;;;;;;5086868;28;20029;-65
2021/11/03 07:43:14;;;;;;;23.35;12.60;;;5.70;99.90;;;;;;5089390;28;20565;-65
2021/11/03 07:45:40;;;;;;;27.30;13.25;;;5.70;99.90;;;;;;5087358;28;20106;-63
2021/11/03 07:48:07;;;;;;;18.73;10.60;;;5.70;99.90;;;;;;5089819;28;20036;-66
2021/11/03 07:50:39;;;;;;;15.98;8.80;;;5.80;99.90;;;;;;5090067;28;20169;-64
2021/11/03 07:53:07;;;;;;;15.30;8.43;;;5.80;99.90;;;;;;5089070;28;20115;-63
2021/11/03 07:55:33;;;;;;;13.48;8.30;;;5.90;99.90;;;;;;5090130;28;20044;-64
2021/11/03 07:57:59;;;;;;;13.90;7.65;;;5.90;99.90;;;;;;5089606;28;20040;-64
2021/11/03 08:00:32;;;;;;;17.73;9.15;;;5.90;99.90;;;;;;5089259;28;20032;-64
2021/11/03 08:02:58;;;;;;;17.67;8.63;;;5.90;99.90;;;;;;5089654;28;20040;-64
2021/11/03 08:05:27;;;;;;;14.13;8.15;;;5.90;99.90;;;;;;5089672;28;20032;-63
2021/11/03 08:07:58;;;;;;;13.73;8.32;;;6.00;99.90;;;;;;5089179;28;20043;-64
2021/11/03 08:10:25;;;;;;;18.33;8.40;;;6.00;99.90;;;;;;5085641;28;20036;-63
2021/11/03 08:12:53;;;;;;;12.43;7.78;;;6.00;99.90;;;;;;5089742;28;20058;-63
2021/11/03 08:15:19;;;;;;;15.20;8.60;;;6.10;99.90;;;;;;5088549;28;20153;-63
2021/11/03 08:17:45;;;;;;;405.10;202.38;;;6.10;99.90;;;;;;5096047;28;20063;-64
2021/11/03 08:20:17;;;;;;;64.35;29.30;;;6.20;99.90;;;;;;5090533;28;20047;-63
2021/11/03 08:22:43;;;;;;;51.00;27.13;;;6.20;99.90;;;;;;5088840;28;20419;-63
2021/11/03 08:25:09;;;;;;;20.83;11.60;;;6.20;99.90;;;;;;5080141;28;20043;-63
2021/11/03 08:27:35;;;;;;;14.38;8.32;;;6.20;99.90;;;;;;5082909;28;20048;-69
2021/11/03 08:30:04;;;;;;;15.73;8.27;;;6.30;99.90;;;;;;5087205;28;20035;-64
2021/11/03 08:32:33;;;;;;;26.35;14.52;;;6.20;99.90;;;;;;5085348;28;20044;-63
2021/11/03 08:34:59;;;;;;;17.17;10.05;;;6.30;99.90;;;;;;5089069;28;20044;-64
2021/11/03 08:37:36;;;;;;;17.90;9.52;;;6.40;99.90;;;;;;5089661;28;20040;-63
2021/11/03 08:40:05;;;;;;;21.65;12.13;;;6.40;99.90;;;;;;5088248;28;20089;-60
2021/11/03 08:42:32;;;;;;;26.52;13.98;;;6.50;99.90;;;;;;5089970;28;20123;-63
2021/11/03 08:44:57;;;;;;;20.33;10.82;;;6.50;99.90;;;;;;5085533;28;20035;-65
2021/11/03 08:47:24;;;;;;;16.30;9.38;;;6.50;99.90;;;;;;5070057;28;20416;-63
2021/11/03 08:49:50;;;;;;;19.65;9.48;;;6.40;99.90;;;;;;5085764;28;20523;-64
2021/11/03 08:52:17;;;;;;;15.70;9.38;;;6.30;99.90;;;;;;5089039;28;20040;-62
2021/11/03 08:54:45;;;;;;;16.35;8.73;;;6.40;99.90;;;;;;5089079;28;20044;-64
2021/11/03 08:57:12;;;;;;;22.13;11.90;;;6.40;99.90;;;;;;5088634;28;20047;-66
2021/11/03 08:59:38;;;;;;;19.92;10.70;;;6.40;99.90;;;;;;5088662;28;20064;-64
2021/11/03 09:02:04;;;;;;;;;;;6.40;99.90;;;;;;5088943;28;20124;-63
2021/11/03 09:04:34;;;;;;;30.55;11.30;;;6.40;99.90;;;;;;5088237;28;20364;-64
2021/11/03 09:06:59;;;;;;;20.58;11.52;;;6.50;99.90;;;;;;5086847;28;20437;-64
2021/11/03 09:09:26;;;;;;;24.67;13.45;;;6.50;99.90;;;;;;5083997;28;20032;-63
2021/11/03 09:11:52;;;;;;;20.67;12.07;;;6.50;99.90;;;;;;5088539;28;20134;-64
2021/11/03 09:14:20;;;;;;;;;;;6.40;99.90;;;;;;5088862;28;20130;-63
2021/11/03 09:16:47;;;;;;;18.75;10.70;;;6.50;99.90;;;;;;5087217;28;19920;-65
2021/11/03 09:19:13;;;;;;;22.58;10.23;;;6.60;99.90;;;;;;5088299;28;20127;-65
2021/11/03 09:21:38;;;;;;;;;;;6.60;99.90;;;;;;5084086;28;20048;-63
2021/11/03 09:24:04;;;;;;;20.98;11.43;;;6.70;99.90;;;;;;5088006;28;20022;-64
2021/11/03 09:26:30;;;;;;;22.48;12.70;;;6.70;99.90;;;;;;5087457;28;20090;-64
2021/11/03 09:28:59;;;;;;;;;;;6.70;99.90;;;;;;5088727;28;20123;-64
2021/11/03 09:31:25;;;;;;;34.45;18.98;;;6.80;99.90;;;;;;5087810;28;19916;-62
2021/11/03 09:33:51;;;;;;;32.17;16.25;;;6.90;99.90;;;;;;5087233;28;20040;-62
2021/11/03 09:36:19;;;;;;;27.17;14.85;;;6.90;99.90;;;;;;5081730;28;20036;-62
2021/11/03 09:38:46;;;;;;;31.05;13.80;;;6.90;99.90;;;;;;5083880;28;20049;-62
2021/11/03 09:41:12;;;;;;;24.55;14.48;;;6.90;99.90;;;;;;5087944;28;20481;-62
2021/11/03 09:43:40;;;;;;;;;;;6.90;99.90;;;;;;5087952;28;20593;-63
2021/11/03 09:46:21;;;;;;;18.13;10.15;;;7.00;99.90;;;;;;5087978;28;19927;-64
2021/11/03 09:48:52;;;;;;;43.90;22.55;;;7.00;99.90;;;;;;5088643;28;20063;-64
2021/11/03 09:51:23;;;;;;;88.50;36.30;;;7.00;99.90;;;;;;5088249;28;20047;-63
2021/11/03 09:53:55;;;;;;;30.08;14.90;;;7.00;99.90;;;;;;5090246;28;20044;-64
2021/11/03 09:56:33;;;;;;;24.05;12.60;;;7.10;99.90;;;;;;5086885;28;20558;-62
2021/11/03 09:59:34;;;;;;;20.73;11.95;;;7.10;99.90;;;;;;5088447;28;20058;-63
2021/11/03 10:02:29;;;;;;;18.20;10.73;;;7.00;99.90;;;;;;5087796;28;20042;-64
2021/11/03 10:05:21;;;;;;;15.52;9.68;;;6.90;99.90;;;;;;5067768;28;20492;-65
2021/11/03 10:07:55;;;;;;;18.85;10.75;;;6.90;99.90;;;;;;5064511;28;20531;-62
2021/11/03 10:10:42;;;;;;;14.05;8.10;;;6.90;99.90;;;;;;5086430;28;20380;-63
2021/11/03 10:13:13;;;;;;;;;;;6.80;99.90;;;;;;5068251;28;20108;-61
2021/11/03 10:15:55;;;;;;;16.20;9.43;;;6.90;99.90;;;;;;5066338;28;20349;-62
2021/11/03 10:18:22;;;;;;;12.82;8.40;;;6.90;99.90;;;;;;5066901;28;20071;-66
2021/11/03 10:21:13;;;;;;;45.83;16.02;;;7.00;99.90;;;;;;5066875;28;20044;-64
2021/11/03 10:23:48;;;;;;;63.85;21.77;;;7.00;99.90;;;;;;5077229;28;20046;-63
2021/11/03 10:26:13;;;;;;;73.22;22.35;;;7.00;99.90;;;;;;5086097;28;20131;-64
2021/11/03 10:28:41;;;;;;;;;;;6.90;99.90;;;;;;5086929;28;20123;-62
2021/11/03 10:31:47;;;;;;;102.30;32.78;;;7.00;99.90;;;;;;5085974;28;20319;-63
2021/11/03 10:34:27;;;;;;;47.53;18.30;;;6.90;99.90;;;;;;5078751;28;20068;-64
2021/11/03 10:37:08;;;;;;;17.83;10.20;;;7.00;99.90;;;;;;5081098;28;20496;-62
2021/11/03 10:39:50;;;;;;;16.38;9.82;;;6.90;99.90;;;;;;5076132;28;20097;-63
2021/11/03 10:42:19;;;;;;;13.10;7.88;;;6.90;99.90;;;;;;5080432;28;20089;-60
2021/11/03 10:44:45;;;;;;;12.68;6.68;;;6.90;99.90;;;;;;5086819;28;20047;-64
2021/11/03 10:47:18;;;;;;;9.90;7.15;;;6.90;99.90;;;;;;5085067;28;20515;-63
2021/11/03 10:50:00;;;;;;;13.82;7.45;;;6.80;99.90;;;;;;5079650;28;20067;-64
2021/11/03 10:52:32;;;;;;;9.52;6.38;;;6.90;99.90;;;;;;5084652;28;20123;-61
2021/11/03 10:55:13;;;;;;;9.35;5.68;;;6.80;99.90;;;;;;5083944;28;20488;-63
2021/11/03 10:57:42;;;;;;;8.40;5.40;;;6.70;99.90;;;;;;5085497;28;20139;-63
2021/11/03 11:00:25;;;;;;;9.70;6.22;;;6.70;99.90;;;;;;5083836;28;20637;-63
2021/11/03 11:03:00;;;;;;;8.50;5.35;;;6.60;99.90;;;;;;5080725;28;20648;-61
2021/11/03 11:05:28;;;;;;;9.17;5.40;;;6.70;99.90;;;;;;5065823;28;20135;-62
2021/11/03 11:08:04;;;;;;;8.27;4.40;;;6.70;99.90;;;;;;5066319;28;20390;-61
2021/11/03 11:10:41;;;;;;;4.50;3.00;;;6.70;99.90;;;;;;5074977;28;20038;-62
2021/11/03 11:13:19;;;;;;;9.15;3.42;;;6.70;99.90;;;;;;5075563;28;20040;-62
2021/11/03 11:16:11;;;;;;;5.50;3.75;;;6.60;99.90;;;;;;5077902;28;20097;-63
2021/11/03 11:18:39;;;;;;;8.45;4.60;;;6.70;99.90;;;;;;5083504;28;20090;-62
2021/11/03 11:21:40;;;;;;;5.50;3.70;;;6.80;99.90;;;;;;5085598;28;20702;-62
2021/11/03 11:24:20;;;;;;;6.43;3.40;;;6.80;99.90;;;;;;5078213;28;20044;-63
2021/11/03 11:27:06;;;;;;;4.93;3.58;;;6.90;99.90;;;;;;5086007;28;20135;-64
2021/11/03 11:29:56;;;;;;;6.20;4.07;;;6.80;99.90;;;;;;5087218;28;20036;-62
2021/11/03 11:32:43;;;;;;;7.90;4.85;;;6.80;99.90;;;;;;5083748;28;20097;-63
2021/11/03 11:35:18;;;;;;;6.40;4.35;;;6.80;99.90;;;;;;5079097;28;20040;-63
2021/11/03 11:38:16;;;;;;;7.88;5.25;;;6.80;99.90;;;;;;5085938;28;20036;-65
2021/11/03 11:40:58;;;;;;;6.20;4.20;;;6.80;99.90;;;;;;5083144;28;20036;-62
2021/11/03 11:43:45;;;;;;;8.48;4.75;;;6.70;99.90;;;;;;5086318;28;20042;-61
2021/11/03 11:46:21;;;;;;;6.68;4.50;;;6.80;99.90;;;;;;5085227;28;20040;-63
2021/11/03 11:48:52;;;;;;;7.13;5.17;;;6.70;99.90;;;;;;5086063;28;20040;-64
2021/11/03 11:51:37;;;;;;;7.40;4.88;;;6.70;99.90;;;;;;5085838;28;20100;-61
2021/11/03 11:54:40;;;;;;;9.15;4.55;;;6.70;99.90;;;;;;5085307;28;20067;-64
2021/11/03 11:57:11;;;;;;;8.13;5.05;;;6.60;99.90;;;;;;5062366;28;20109;-63
2021/11/03 12:00:03;;;;;;;9.05;5.35;;;6.60;99.90;;;;;;5081849;28;20055;-63
2021/11/03 12:02:32;;;;;;;9.05;4.60;;;6.70;99.90;;;;;;5076209;28;20118;-63
2021/11/03 12:05:28;;;;;;;10.75;5.63;;;6.70;99.90;;;;;;5085920;28;20052;-65
2021/11/03 12:08:08;;;;;;;6.70;4.57;;;6.70;99.90;;;;;;5084488;28;20087;-62
2021/11/03 12:10:49;;;;;;;9.02;3.42;;;6.80;99.90;;;;;;5081569;28;20044;-64
2021/11/03 12:13:19;;;;;;;5.95;3.35;;;6.70;99.90;;;;;;5069638;28;20051;-63
2021/11/03 12:15:50;;;;;;;6.40;3.90;;;6.70;99.90;;;;;;5087140;28;20062;-63
2021/11/03 12:18:28;;;;;;;11.70;4.75;;;6.80;99.90;;;;;;5088452;28;20032;-62
2021/11/03 12:21:03;;;;;;;4.88;2.22;;;6.80;99.90;;;;;;5087539;28;20400;-64
2021/11/03 12:23:43;;;;;;;4.53;2.45;;;6.80;99.90;;;;;;5083210;28;20058;-62
2021/11/03 12:26:38;;;;;;;2.95;1.80;;;6.80;99.90;;;;;;5078896;28;20047;-62
2021/11/03 12:29:16;;;;;;;5.50;2.55;;;6.80;99.90;;;;;;5080750;28;20048;-63
2021/11/03 12:31:52;;;;;;;8.70;2.95;;;6.80;99.90;;;;;;5087611;28;20058;-63
2021/11/03 12:34:23;;;;;;;8.65;3.45;;;6.80;99.90;;;;;;5087562;28;20044;-61
2021/11/03 12:36:49;;;;;;;10.88;2.72;;;6.70;99.90;;;;;;5085744;28;20044;-63
2021/11/03 12:39:29;;;;;;;;;;;6.80;99.90;;;;;;5084575;28;20040;-62
2021/11/03 12:42:17;;;;;;;14.25;3.78;;;6.80;99.90;;;;;;5087252;28;20291;-63
2021/11/03 12:44:53;;;;;;;10.95;3.28;;;6.80;99.90;;;;;;5088072;28;20064;-63
2021/11/03 12:47:44;;;;;;;6.22;2.35;;;6.80;99.90;;;;;;5086619;28;20051;-63
2021/11/03 12:50:26;;;;;;;6.30;2.90;;;6.90;99.90;;;;;;5067315;28;20709;-64
2021/11/03 12:53:14;;;;;;;5.28;3.47;;;6.80;99.90;;;;;;5082389;28;20043;-61
2021/11/03 12:56:02;;;;;;;17.60;8.30;;;6.80;99.90;;;;;;5086871;28;20071;-63
2021/11/03 12:58:39;;;;;;;11.25;5.57;;;6.90;99.90;;;;;;5087241;28;20075;-63
2021/11/03 13:01:30;;;;;;;10.88;5.75;;;7.00;99.90;;;;;;5086322;28;20393;-63
2021/11/03 13:04:01;;;;;;;5.10;3.30;;;6.90;99.90;;;;;;5071938;28;20048;-63
2021/11/03 13:06:38;;;;;;;11.40;5.05;;;7.00;99.90;;;;;;5074029;28;20128;-63
2021/11/03 13:09:04;;;;;;;5.05;3.58;;;6.90;99.90;;;;;;5077157;28;20052;-62
2021/11/03 13:11:36;;;;;;;4.70;3.03;;;6.90;99.90;;;;;;5079541;28;20032;-62